Terminal Aerodrome Forecast
Issued by NWS Binghamton, NY

Home | Current Version | Previous Version | Text Only | Print | Product List | Glossary On
Versions: 1 2 3 4 5 6 7 8 9 10 11 12 13 14 15 16 17 18 19 20 21
000
FTUS41 KBGM 010500 RRA
TAFBGM
TAF
KBGM 010541Z 0106/0206 27005KT P6SM OVC035
      TEMPO 0106/0109 OVC025
     FM010900 28007KT P6SM OVC025
      TEMPO 0109/0113 -SHSN OVC015
     FM011600 32007KT P6SM OVC025
     FM012100 03004KT 1SM -SN SCT008 OVC012
     FM020200 10006KT 1/2SM SN OVC007=

USA.gov is the U.S. government's official web portal to all federal, state and local government web resources and services.